Time;durP1;ratioP1;P1;durP2;ratioP2;P2;SDS_P1;SDS_P2;PMS_P1;PMS_P2;Temp;Humidity;BMP_temperature;BMP_pressure;BME280_temperature;BME280_humidity;BME280_pressure;Samples;Min_cycle;Max_cycle;Signal;HPM_P1;HPM_P2
2022/04/11 00:02:03;;;;;;;0.65;0.65;;;;;;;-143.85;100.00;70650.75;5074705;28;20443;-84
2022/04/11 00:04:29;;;;;;;0.32;0.32;;;;;;;-143.85;100.00;70650.75;5075378;28;20036;-84
2022/04/11 00:06:54;;;;;;;0.32;0.32;;;;;;;-143.85;100.00;70650.75;5074754;28;20530;-84
2022/04/11 00:09:20;;;;;;;0.57;0.57;;;;;;;-143.85;100.00;70650.75;5074618;28;20090;-84
2022/04/11 00:11:46;;;;;;;0.60;0.60;;;;;;;-143.85;100.00;70650.75;5074941;28;20029;-85
2022/04/11 00:14:12;;;;;;;0.85;0.85;;;;;;;-143.85;100.00;70650.75;5074760;28;20120;-87
2022/04/11 00:16:38;;;;;;;0.40;0.40;;;;;;;-143.85;100.00;70650.75;5075990;28;20035;-84
2022/04/11 00:19:04;;;;;;;0.35;0.35;;;;;;;-143.85;100.00;70650.75;5075364;28;20029;-85
2022/04/11 00:21:29;;;;;;;0.60;0.60;;;;;;;-143.85;100.00;70650.75;5074288;28;20024;-84
2022/04/11 00:23:55;;;;;;;0.75;0.75;;;;;;;-143.85;100.00;70650.75;5087692;28;20024;-84
2022/04/11 00:26:20;;;;;;;0.80;0.80;;;;;;;-143.85;100.00;70650.75;5095136;28;20058;-85
2022/04/11 00:28:45;;;;;;;1.13;0.60;;;;;;;-143.85;100.00;70650.75;5095214;28;20028;-86
2022/04/11 00:31:11;;;;;;;0.65;0.65;;;;;;;-143.85;100.00;70650.75;5094873;28;20024;-85
2022/04/11 00:33:36;;;;;;;0.70;0.60;;;;;;;-143.85;100.00;70650.75;5094469;28;20035;-85
2022/04/11 00:36:02;;;;;;;0.40;0.40;;;;;;;-143.85;100.00;70650.75;5094500;28;20020;-85
2022/04/11 00:38:27;;;;;;;0.40;0.40;;;;;;;-143.85;100.00;70650.75;5092991;28;20038;-85
2022/04/11 00:40:53;;;;;;;0.30;0.30;;;;;;;-143.85;100.00;70650.75;5092030;28;20033;-86
2022/04/11 00:43:38;;;;;;;0.40;0.38;;;;;;;-143.85;100.00;70650.75;5074250;28;20032;-86
2022/04/11 00:46:06;;;;;;;0.43;0.43;;;;;;;-143.85;100.00;70650.75;5074485;28;20032;-86
2022/04/11 00:48:32;;;;;;;0.35;0.35;;;;;;;-143.85;100.00;70650.75;5074770;28;20055;-84
2022/04/11 00:51:22;;;;;;;0.55;0.55;;;;;;;-143.85;100.00;70650.75;5090931;28;20502;-85
2022/04/11 00:53:51;;;;;;;0.55;0.55;;;;;;;-143.85;100.00;70650.75;5073507;28;20032;-85
2022/04/11 00:56:18;;;;;;;0.50;0.50;;;;;;;-143.85;100.00;70650.75;5073747;28;20028;-84
2022/04/11 00:58:45;;;;;;;0.77;0.77;;;;;;;-143.85;100.00;70650.75;5074394;28;20033;-85
2022/04/11 01:01:11;;;;;;;0.47;0.47;;;;;;;-143.85;100.00;70650.75;5073703;28;20025;-84
2022/04/11 01:03:37;;;;;;;0.30;0.30;;;;;;;-143.85;100.00;70650.75;5073648;28;20033;-85
2022/04/11 01:06:03;;;;;;;1.85;0.77;;;;;;;-143.85;100.00;70650.75;5073879;28;20028;-85
2022/04/11 01:08:29;;;;;;;0.35;0.35;;;;;;;-143.85;100.00;70650.75;5073851;28;20021;-85
2022/04/11 01:10:55;;;;;;;0.90;0.65;;;;;;;-143.85;100.00;70650.75;5074005;28;20035;-85
2022/04/11 01:13:20;;;;;;;0.57;0.50;;;;;;;-143.85;100.00;70650.75;5073607;28;20037;-85
2022/04/11 01:15:57;;;;;;;0.90;0.90;;;;;;;-143.85;100.00;70650.75;5073855;28;20028;-84
2022/04/11 01:18:22;;;;;;;0.50;0.50;;;;;;;-143.85;100.00;70650.75;5074670;28;20036;-84
2022/04/11 01:20:48;;;;;;;0.60;0.50;;;;;;;-143.85;100.00;70650.75;5074838;28;20380;-85
2022/04/11 01:23:14;;;;;;;0.47;0.47;;;;;;;-143.85;100.00;70650.75;5073672;28;20082;-85
2022/04/11 01:25:40;;;;;;;0.65;0.63;;;;;;;-143.85;100.00;70650.75;5073072;28;20028;-84
2022/04/11 01:28:05;;;;;;;0.40;0.40;;;;;;;-143.85;100.00;70650.75;5073283;28;20032;-86
2022/04/11 01:30:31;;;;;;;0.57;0.50;;;;;;;-143.85;100.00;70650.75;5073316;28;20123;-85
2022/04/11 01:32:56;;;;;;;0.30;0.30;;;;;;;-143.85;100.00;70650.75;5073102;28;20499;-85
2022/04/11 01:35:25;;;;;;;0.50;0.50;;;;;;;-143.85;100.00;70650.75;5074271;28;20024;-84
2022/04/11 01:37:52;;;;;;;1.98;1.10;;;;;;;-143.85;100.00;70650.75;5072828;28;20055;-84
2022/04/11 01:40:18;;;;;;;0.40;0.40;;;;;;;-143.85;100.00;70650.75;5071612;28;20436;-85
2022/04/11 01:42:43;;;;;;;1.83;0.75;;;;;;;-143.85;100.00;70650.75;5074059;28;20027;-86
2022/04/11 01:45:11;;;;;;;0.43;0.40;;;;;;;-143.85;100.00;70650.75;5073156;28;20039;-83
2022/04/11 01:47:40;;;;;;;1.25;1.15;;;;;;;-143.85;100.00;70650.75;5074114;28;20361;-85
2022/04/11 01:50:09;;;;;;;0.70;0.70;;;;;;;-143.85;100.00;70650.75;5072585;28;20029;-84
2022/04/11 01:52:35;;;;;;;0.50;0.43;;;;;;;-143.85;100.00;70650.75;5073285;28;20039;-85
2022/04/11 01:55:04;;;;;;;0.60;0.60;;;;;;;-143.85;100.00;70650.75;5072385;28;20021;-85
2022/04/11 01:57:30;;;;;;;0.52;0.52;;;;;;;-143.85;100.00;70650.75;5072722;28;20029;-85
2022/04/11 01:59:56;;;;;;;0.47;0.47;;;;;;;-143.85;100.00;70650.75;5072692;28;20036;-85
2022/04/11 02:02:22;;;;;;;0.60;0.60;;;;;;;-143.85;100.00;70650.75;5072542;28;20030;-85
2022/04/11 02:04:48;;;;;;;0.55;0.55;;;;;;;-143.85;100.00;70650.75;5072566;28;20021;-85
2022/04/11 02:07:13;;;;;;;0.90;0.73;;;;;;;-143.85;100.00;70650.75;5073674;28;20086;-85
2022/04/11 02:09:39;;;;;;;1.65;0.60;;;;;;;-143.85;100.00;70650.75;5072397;28;20035;-84
2022/04/11 02:12:04;;;;;;;3.83;0.63;;;;;;;-143.85;100.00;70650.75;5072575;28;20031;-85
2022/04/11 02:14:30;;;;;;;1.65;0.95;;;;;;;-143.85;100.00;70650.75;5073628;28;20071;-86
2022/04/11 02:16:56;;;;;;;0.77;0.70;;;;;;;-143.85;100.00;70650.75;5072471;28;20494;-87
2022/04/11 02:19:22;;;;;;;0.60;0.60;;;;;;;-143.85;100.00;70650.75;5072181;28;20093;-86
2022/04/11 02:21:47;;;;;;;0.75;0.50;;;;;;;-143.85;100.00;70650.75;5072196;28;20021;-85
2022/04/11 02:24:13;;;;;;;0.70;0.70;;;;;;;-143.85;100.00;70650.75;5072326;28;20032;-85
2022/04/11 02:26:38;;;;;;;0.30;0.30;;;;;;;-143.85;100.00;70650.75;5072265;28;20032;-87
2022/04/11 02:29:04;;;;;;;1.08;0.82;;;;;;;-143.85;100.00;70650.75;5072460;28;20169;-84
2022/04/11 02:31:29;;;;;;;0.70;0.57;;;;;;;-143.85;100.00;70650.75;5088291;28;20027;-86
2022/04/11 02:33:55;;;;;;;0.40;0.40;;;;;;;-143.85;100.00;70650.75;5093231;28;20031;-85
2022/04/11 02:36:20;;;;;;;1.05;0.80;;;;;;;-143.85;100.00;70650.75;5092465;28;20482;-87
2022/04/11 02:38:46;;;;;;;0.40;0.40;;;;;;;-143.85;100.00;70650.75;5092251;28;20139;-85
2022/04/11 02:41:11;;;;;;;0.80;0.80;;;;;;;-143.85;100.00;70650.75;5092464;28;20483;-87
2022/04/11 02:43:36;;;;;;;1.00;1.00;;;;;;;-143.85;100.00;70650.75;5092212;28;20036;-86
2022/04/11 02:46:02;;;;;;;0.50;0.50;;;;;;;-143.85;100.00;70650.75;5091850;28;20024;-86
2022/04/11 02:48:27;;;;;;;0.35;0.35;;;;;;;-143.85;100.00;70650.75;5092457;28;20119;-86
2022/04/11 02:50:53;;;;;;;0.38;0.38;;;;;;;-143.85;100.00;70650.75;5092183;28;20020;-87
2022/04/11 02:53:19;;;;;;;0.55;0.55;;;;;;;-143.85;100.00;70650.75;5092173;28;20032;-86
2022/04/11 02:55:44;;;;;;;0.70;0.70;;;;;;;-143.85;100.00;70650.75;5093215;28;20099;-86
2022/04/11 02:58:10;;;;;;;1.33;0.60;;;;;;;-143.85;100.00;70650.75;5091861;28;20032;-88
2022/04/11 03:00:35;;;;;;;7.80;0.55;;;;;;;-143.85;100.00;70650.75;5091966;28;20092;-86
2022/04/11 03:03:00;;;;;;;0.60;0.60;;;;;;;-143.85;100.00;70650.75;5092332;28;20024;-87
2022/04/11 03:05:26;;;;;;;0.30;0.30;;;;;;;-143.85;100.00;70650.75;5093336;28;20024;-88
2022/04/11 03:07:51;;;;;;;0.57;0.57;;;;;;;-143.85;100.00;70650.75;5092091;28;20140;-85
2022/04/11 03:10:17;;;;;;;0.90;0.90;;;;;;;-143.85;100.00;70650.75;5092114;28;20029;-84
2022/04/11 03:12:42;;;;;;;0.47;0.47;;;;;;;-143.85;100.00;70650.75;5092896;28;20479;-88
2022/04/11 03:15:08;;;;;;;0.60;0.60;;;;;;;-143.85;100.00;70650.75;5091962;28;20115;-88
2022/04/11 03:17:34;;;;;;;5.25;1.83;;;;;;;-143.85;100.00;70650.75;5092111;28;20043;-85
2022/04/11 03:19:59;;;;;;;0.60;0.57;;;;;;;-143.85;100.00;70650.75;5093006;28;20472;-86
2022/04/11 03:22:25;;;;;;;1.15;1.05;;;;;;;-143.85;100.00;70650.75;5091864;28;20028;-86
2022/04/11 03:24:50;;;;;;;0.35;0.35;;;;;;;-143.85;100.00;70650.75;5092042;28;20461;-85
2022/04/11 03:27:16;;;;;;;10.32;1.02;;;;;;;-143.85;100.00;70650.75;5092938;28;20521;-88
2022/04/11 03:29:41;;;;;;;0.60;0.60;;;;;;;-143.85;100.00;70650.75;5091930;28;20032;-86
2022/04/11 03:32:07;;;;;;;0.52;0.40;;;;;;;-143.85;100.00;70650.75;5090278;28;20079;-85
2022/04/11 03:34:33;;;;;;;0.38;0.38;;;;;;;-143.85;100.00;70650.75;5091955;28;20039;-84
2022/04/11 03:36:58;;;;;;;1.48;0.55;;;;;;;-143.85;100.00;70650.75;5073411;28;20499;-86
2022/04/11 03:39:23;;;;;;;0.20;0.20;;;;;;;-143.85;100.00;70650.75;5088237;28;20055;-86
2022/04/11 03:41:49;;;;;;;0.30;0.30;;;;;;;-143.85;100.00;70650.75;5071718;28;20032;-84
2022/04/11 03:44:14;;;;;;;0.30;0.30;;;;;;;-143.85;100.00;70650.75;5071811;28;20456;-85
2022/04/11 03:46:40;;;;;;;0.30;0.30;;;;;;;-143.85;100.00;70650.75;5079955;28;20026;-86
2022/04/11 03:49:06;;;;;;;0.30;0.30;;;;;;;-143.85;100.00;70650.75;5091995;28;20121;-86
2022/04/11 03:51:32;;;;;;;0.20;0.20;;;;;;;-143.85;100.00;70650.75;5091787;28;20024;-85
2022/04/11 03:53:58;;;;;;;0.20;0.20;;;;;;;-143.85;100.00;70650.75;5091551;28;20032;-86
2022/04/11 03:56:23;;;;;;;0.20;0.20;;;;;;;-143.85;100.00;70650.75;5092179;28;20028;-87
2022/04/11 03:58:49;;;;;;;0.30;0.30;;;;;;;-143.85;100.00;70650.75;5092135;28;20020;-86
2022/04/11 04:01:14;;;;;;;0.28;0.28;;;;;;;-143.85;100.00;70650.75;5091985;28;20115;-88
2022/04/11 04:03:40;;;;;;;0.20;0.20;;;;;;;-143.85;100.00;70650.75;5093063;28;20028;-86
2022/04/11 04:06:06;;;;;;;0.20;0.20;;;;;;;-143.85;100.00;70650.75;5096210;28;20035;-85
2022/04/11 04:08:32;;;;;;;0.32;0.32;;;;;;;-143.85;100.00;70650.75;5095792;28;20546;-85
2022/04/11 04:10:58;;;;;;;0.30;0.30;;;;;;;-143.85;100.00;70650.75;5096080;28;20103;-86
2022/04/11 04:13:24;;;;;;;0.30;0.30;;;;;;;-143.85;100.00;70650.75;5095161;28;20032;-87
2022/04/11 04:15:49;;;;;;;0.32;0.32;;;;;;;-143.85;100.00;70650.75;5095054;28;20020;-86
2022/04/11 04:18:15;;;;;;;0.38;0.38;;;;;;;-143.85;100.00;70650.75;5095319;28;20031;-85
2022/04/11 04:20:41;;;;;;;0.30;0.30;;;;;;;-143.85;100.00;70650.75;5094785;28;20024;-85
2022/04/11 04:23:07;;;;;;;0.22;0.22;;;;;;;-143.85;100.00;70650.75;5094991;28;20035;-86
2022/04/11 04:25:34;;;;;;;0.40;0.40;;;;;;;-143.85;100.00;70650.75;5095540;28;20039;-85
2022/04/11 04:27:59;;;;;;;0.32;0.32;;;;;;;-143.85;100.00;70650.75;5094920;28;20028;-84
2022/04/11 04:30:25;;;;;;;0.20;0.20;;;;;;;-143.85;100.00;70650.75;5092923;28;20030;-85
2022/04/11 04:32:52;;;;;;;0.38;0.38;;;;;;;-143.85;100.00;70650.75;5074439;28;20028;-86
2022/04/11 04:35:18;;;;;;;1.40;0.55;;;;;;;-143.85;100.00;70650.75;5074400;28;20025;-85
2022/04/11 04:37:44;;;;;;;0.30;0.30;;;;;;;-143.85;100.00;70650.75;5091179;28;20120;-86
2022/04/11 04:40:10;;;;;;;0.30;0.30;;;;;;;-143.85;100.00;70650.75;5075727;28;20136;-85
2022/04/11 04:42:36;;;;;;;0.75;0.75;;;;;;;-143.85;100.00;70650.75;5074950;28;20056;-86
2022/04/11 04:45:03;;;;;;;0.50;0.50;;;;;;;-143.85;100.00;70650.75;5074396;28;20033;-85
2022/04/11 04:47:29;;;;;;;0.30;0.30;;;;;;;-143.85;100.00;70650.75;5074314;28;20048;-86
2022/04/11 04:49:54;;;;;;;0.70;0.70;;;;;;;-143.85;100.00;70650.75;5075690;28;20025;-86
2022/04/11 04:52:20;;;;;;;0.70;0.70;;;;;;;-143.85;100.00;70650.75;5075423;28;20033;-84
2022/04/11 04:54:45;;;;;;;0.60;0.60;;;;;;;-143.85;100.00;70650.75;5075239;28;20392;-85
2022/04/11 04:57:11;;;;;;;0.70;0.70;;;;;;;-143.85;100.00;70650.75;5091200;28;20124;-85
2022/04/11 04:59:36;;;;;;;0.50;0.50;;;;;;;-143.85;100.00;70650.75;5074035;28;20472;-85
2022/04/11 05:02:02;;;;;;;0.20;0.20;;;;;;;-143.85;100.00;70650.75;5073979;28;20037;-86
2022/04/11 05:04:27;;;;;;;0.70;0.57;;;;;;;-143.85;100.00;70650.75;5090965;28;20025;-85
2022/04/11 05:06:53;;;;;;;0.30;0.30;;;;;;;-143.85;100.00;70650.75;5074473;28;20031;-88
2022/04/11 05:09:18;;;;;;;1.45;0.70;;;;;;;-143.85;100.00;70650.75;5090627;28;20090;-87
2022/04/11 05:11:44;;;;;;;0.93;0.50;;;;;;;-143.85;100.00;70650.75;5073907;28;20056;-86
2022/04/11 05:14:10;;;;;;;7.43;0.63;;;;;;;-143.85;100.00;70650.75;5073663;28;20059;-88
2022/04/11 05:16:35;;;;;;;0.20;0.20;;;;;;;-143.85;100.00;70650.75;5090811;28;20476;-87
2022/04/11 05:19:02;;;;;;;0.35;0.35;;;;;;;-143.85;100.00;70650.75;5075377;28;20079;-88
2022/04/11 05:21:28;;;;;;;1.70;0.93;;;;;;;-143.85;100.00;70650.75;5093770;28;20454;-87
2022/04/11 05:23:53;;;;;;;0.50;0.50;;;;;;;-143.85;100.00;70650.75;5086737;28;20013;-87
2022/04/11 05:26:19;;;;;;;0.93;0.93;;;;;;;-143.85;100.00;70650.75;5073537;28;20028;-87
2022/04/11 05:28:44;;;;;;;0.60;0.60;;;;;;;-143.85;100.00;70650.75;5074667;28;20021;-86
2022/04/11 05:31:10;;;;;;;0.60;0.60;;;;;;;-143.85;100.00;70650.75;5089880;28;20032;-85
2022/04/11 05:33:35;;;;;;;1.20;1.05;;;;;;;-143.85;100.00;70650.75;5073462;28;20024;-88
2022/04/11 05:36:01;;;;;;;0.95;0.75;;;;;;;-143.85;100.00;70650.75;5073243;28;20088;-86
2022/04/11 05:38:26;;;;;;;1.30;0.85;;;;;;;-143.85;100.00;70650.75;5073012;28;20028;-87
2022/04/11 05:40:52;;;;;;;0.60;0.60;;;;;;;-143.85;100.00;70650.75;5074296;28;20035;-86
2022/04/11 05:43:17;;;;;;;1.33;1.23;;;;;;;-143.85;100.00;70650.75;5093116;28;20474;-82
2022/04/11 05:45:43;;;;;;;0.50;0.50;;;;;;;-143.85;100.00;70650.75;5092967;28;20035;-82
2022/04/11 05:48:09;;;;;;;0.38;0.38;;;;;;;-143.85;100.00;70650.75;5092940;28;20054;-83
2022/04/11 05:50:35;;;;;;;0.70;0.70;;;;;;;-143.85;100.00;70650.75;5090971;28;20406;-82
2022/04/11 05:53:04;;;;;;;1.20;1.08;;;;;;;-143.85;100.00;70650.75;5094143;28;20028;-81
2022/04/11 05:55:30;;;;;;;0.82;0.65;;;;;;;-143.85;100.00;70650.75;5090928;28;20471;-81
2022/04/11 05:57:55;;;;;;;0.65;0.50;;;;;;;-143.85;100.00;70650.75;5092719;28;20038;-81
2022/04/11 06:00:21;;;;;;;0.70;0.70;;;;;;;-143.85;100.00;70650.75;5083871;28;20470;-81
2022/04/11 06:02:47;;;;;;;1.10;0.95;;;;;;;-143.85;100.00;70650.75;5073460;28;20465;-82
2022/04/11 06:05:13;;;;;;;0.65;0.65;;;;;;;-143.85;100.00;70650.75;5072202;28;20025;-81
2022/04/11 06:07:38;;;;;;;0.32;0.32;;;;;;;-143.85;100.00;70650.75;5080626;28;20028;-80
2022/04/11 06:10:05;;;;;;;1.50;0.82;;;;;;;-143.85;100.00;70650.75;5076866;28;20170;-83
2022/04/11 06:12:31;;;;;;;2.38;1.20;;;;;;;-143.85;100.00;70650.75;5092773;28;20028;-81
2022/04/11 06:14:56;;;;;;;1.75;1.33;;;;;;;-143.85;100.00;70650.75;5094109;28;20027;-84
2022/04/11 06:17:23;;;;;;;1.50;1.23;;;;;;;-143.85;100.00;70650.75;5092277;28;20632;-82
2022/04/11 06:19:52;;;;;;;3.17;1.52;;;;;;;-143.85;100.00;70650.75;5093783;28;20102;-84
2022/04/11 06:22:19;;;;;;;1.35;0.98;;;;;;;-143.85;100.00;70650.75;5076537;28;20113;-85
2022/04/11 06:24:46;;;;;;;3.35;1.27;;;;;;;-143.85;100.00;70650.75;5089154;28;20027;-85
2022/04/11 06:27:12;;;;;;;3.50;2.13;;;;;;;-143.85;100.00;70650.75;5091792;28;20052;-84
2022/04/11 06:29:37;;;;;;;9.50;4.10;;;;;;;-143.85;100.00;70650.75;5085634;28;20024;-89
2022/04/11 06:32:04;;;;;;;6.20;3.05;;;;;;;-143.85;100.00;70650.75;5072229;28;20035;-90
2022/04/11 06:34:36;;;;;;;5.00;2.38;;;;;;;-143.85;100.00;70650.75;5099301;28;20035;-87
2022/04/11 06:37:05;;;;;;;4.10;2.40;;;;;;;-143.85;100.00;70650.75;5082631;28;20040;-82
2022/04/11 06:39:31;;;;;;;2.42;2.03;;;;;;;-143.85;100.00;70650.75;5091205;28;20054;-86
2022/04/11 06:41:56;;;;;;;5.45;1.75;;;;;;;-143.85;100.00;70650.75;5087780;28;20033;-82
2022/04/11 06:44:22;;;;;;;3.85;2.40;;;;;;;-143.85;100.00;70650.75;5072779;28;20024;-85
2022/04/11 06:46:48;;;;;;;5.88;2.95;;;;;;;-143.85;100.00;70650.75;5073182;28;20056;-84
2022/04/11 06:49:13;;;;;;;13.68;3.90;;;;;;;-143.85;100.00;70650.75;5071825;28;20090;-85
2022/04/11 06:51:39;;;;;;;6.57;2.63;;;;;;;-143.85;100.00;70650.75;5073014;28;20074;-84
2022/04/11 06:54:04;;;;;;;2.60;2.20;;;;;;;-143.85;100.00;70650.75;5076644;28;20069;-87
2022/04/11 06:56:30;;;;;;;8.40;2.38;;;;;;;-143.85;100.00;70650.75;5093304;28;20020;-86
2022/04/11 06:58:56;;;;;;;2.70;1.63;;;;;;;-143.85;100.00;70650.75;5087747;28;20031;-85
2022/04/11 07:01:22;;;;;;;3.03;1.83;;;;;;;-143.85;100.00;70650.75;5072972;28;20024;-86
2022/04/11 07:03:47;;;;;;;7.05;2.13;;;;;;;-143.85;100.00;70650.75;5073022;28;20025;-84
2022/04/11 07:06:13;;;;;;;6.05;1.85;;;;;;;-143.85;100.00;70650.75;5072954;28;20059;-87
2022/04/11 07:08:38;;;;;;;3.55;1.38;;;;;;;-143.85;100.00;70650.75;5072616;28;20483;-86
2022/04/11 07:11:07;;;;;;;4.45;2.00;;;;;;;-143.85;100.00;70650.75;5071582;28;20472;-86
2022/04/11 07:13:33;;;;;;;3.47;1.90;;;;;;;-143.85;100.00;70650.75;5091085;28;20557;-88
2022/04/11 07:15:59;;;;;;;4.53;1.98;;;;;;;-143.85;100.00;70650.75;5091967;28;20027;-88
2022/04/11 07:18:27;;;;;;;1.52;1.42;;;;;;;-143.85;100.00;70650.75;5092494;28;20034;-89
2022/04/11 07:20:53;;;;;;;3.17;2.43;;;;;;;-143.85;100.00;70650.75;5093284;28;20024;-86
2022/04/11 07:23:19;;;;;;;4.45;1.73;;;;;;;-143.85;100.00;70650.75;5093421;28;20250;-87
2022/04/11 07:25:44;;;;;;;2.85;1.88;;;;;;;-143.85;100.00;70650.75;5091992;28;20108;-87
2022/04/11 07:28:10;;;;;;;3.35;1.33;;;;;;;-143.85;100.00;70650.75;5092494;28;20096;-87
2022/04/11 07:30:35;;;;;;;2.20;1.25;;;;;;;-143.85;100.00;70650.75;5085159;28;20078;-86
2022/04/11 07:33:01;;;;;;;5.07;1.08;;;;;;;-143.85;100.00;70650.75;5072626;28;20555;-81
2022/04/11 07:35:27;;;;;;;2.05;1.55;;;;;;;-143.85;100.00;70650.75;5078259;28;20032;-84
2022/04/11 07:37:52;;;;;;;7.32;4.25;;;;;;;-143.85;100.00;70650.75;5071418;28;20020;-84
2022/04/11 07:40:17;;;;;;;2.78;1.95;;;;;;;-143.85;100.00;70650.75;5076256;28;20052;-84
2022/04/11 07:42:43;;;;;;;2.72;1.20;;;;;;;-143.85;100.00;70650.75;5084071;28;20021;-85
2022/04/11 07:45:09;;;;;;;2.22;0.80;;;;;;;-143.85;100.00;70650.75;5075226;28;20408;-85
2022/04/11 07:47:35;;;;;;;2.28;1.40;;;;;;;-143.85;100.00;70650.75;5078668;28;20399;-85
2022/04/11 07:50:00;;;;;;;1.88;1.25;;;;;;;-143.85;100.00;70650.75;5095312;28;20075;-84
2022/04/11 07:52:26;;;;;;;0.93;0.88;;;;;;;-143.85;100.00;70650.75;5078457;28;20017;-86
2022/04/11 07:54:52;;;;;;;1.00;0.98;;;;;;;-143.85;100.00;70650.75;5074894;28;20119;-83
2022/04/11 07:57:18;;;;;;;1.02;0.75;;;;;;;-143.85;100.00;70650.75;5076806;28;20024;-84
2022/04/11 07:59:43;;;;;;;0.70;0.70;;;;;;;-143.85;100.00;70650.75;5095010;28;20028;-85
2022/04/11 08:02:09;;;;;;;3.00;1.30;;;;;;;-143.85;100.00;70650.75;5091198;28;20024;-90
2022/04/11 08:04:34;;;;;;;0.70;0.70;;;;;;;-143.85;100.00;70650.75;5077618;28;20131;-84
2022/04/11 08:07:01;;;;;;;1.38;1.27;;;;;;;-143.85;100.00;70650.75;5074548;28;20123;-88
2022/04/11 08:09:27;;;;;;;1.88;1.10;;;;;;;-143.85;100.00;70650.75;5074810;28;20086;-86
2022/04/11 08:11:52;;;;;;;1.83;1.17;;;;;;;-143.85;100.00;70650.75;5093646;28;20036;-88
2022/04/11 08:14:17;;;;;;;1.02;0.63;;;;;;;-143.85;100.00;70650.75;5094745;28;20165;-88
2022/04/11 08:16:43;;;;;;;1.00;0.63;;;;;;;-143.85;100.00;70650.75;5096457;28;20095;-86
2022/04/11 08:19:08;;;;;;;0.82;0.82;;;;;;;-143.85;100.00;70650.75;5087472;28;20028;-84
2022/04/11 08:21:34;;;;;;;5.60;0.98;;;;;;;-143.85;100.00;70650.75;5086175;28;20509;-87
2022/04/11 08:23:59;;;;;;;0.55;0.55;;;;;;;-143.85;100.00;70650.75;5074578;28;20028;-85
2022/04/11 08:26:25;;;;;;;0.45;0.45;;;;;;;-143.85;100.00;70650.75;5074230;28;20024;-86
2022/04/11 08:28:50;;;;;;;0.65;0.65;;;;;;;-143.85;100.00;70650.75;5077697;28;20020;-85
2022/04/11 08:31:16;;;;;;;2.15;0.85;;;;;;;-143.85;100.00;70650.75;5095515;28;20157;-89
2022/04/11 08:33:41;;;;;;;1.90;0.85;;;;;;;-143.85;100.00;70650.75;5091315;28;20023;-86
2022/04/11 08:36:07;;;;;;;0.60;0.60;;;;;;;-143.85;100.00;70650.75;5077698;28;20051;-85
2022/04/11 08:38:32;;;;;;;2.65;1.05;;;;;;;-143.85;100.00;70650.75;5094554;28;20032;-88
2022/04/11 08:41:00;;;;;;;0.60;0.57;;;;;;;-143.85;100.00;70650.75;5095235;28;20393;-87
2022/04/11 08:43:27;;;;;;;0.63;0.55;;;;;;;-143.85;100.00;70650.75;5094641;28;20123;-86
2022/04/11 08:45:53;;;;;;;0.50;0.50;;;;;;;-143.85;100.00;70650.75;5095202;28;20020;-88
2022/04/11 08:48:22;;;;;;;0.60;0.60;;;;;;;-143.85;100.00;70650.75;5094497;28;20055;-86
2022/04/11 08:50:48;;;;;;;2.35;1.10;;;;;;;-143.85;100.00;70650.75;5094495;28;20028;-88
2022/04/11 08:53:13;;;;;;;0.65;0.65;;;;;;;-143.85;100.00;70650.75;5094233;28;20124;-87
2022/04/11 08:55:39;;;;;;;0.88;0.88;;;;;;;-143.85;100.00;70650.75;5095394;28;20024;-85
2022/04/11 08:58:05;;;;;;;2.97;0.88;;;;;;;-143.85;100.00;70650.75;5095110;28;20502;-86
2022/04/11 09:00:31;;;;;;;4.78;0.80;;;;;;;-143.85;100.00;70650.75;5095176;28;20038;-81
2022/04/11 09:02:56;;;;;;;1.10;0.70;;;;;;;-143.85;100.00;70650.75;5094800;28;20491;-81
2022/04/11 09:05:27;;;;;;;4.55;1.67;;;;;;;-143.85;100.00;70650.75;5093620;28;20020;-81
2022/04/11 09:07:57;;;;;;;0.57;0.57;;;;;;;-143.85;100.00;70650.75;5093093;28;20028;-82
2022/04/11 09:10:35;;;;;;;0.70;0.70;;;;;;;-143.85;100.00;70650.75;5093744;28;20492;-82
2022/04/11 09:13:06;;;;;;;2.60;0.80;;;;;;;-143.85;100.00;70650.75;5094745;28;20407;-81
2022/04/11 09:15:40;;;;;;;0.75;0.75;;;;;;;-143.85;100.00;70650.75;5093633;28;20016;-81
2022/04/11 09:18:07;;;;;;;0.75;0.65;;;;;;;-143.85;100.00;70650.75;5092038;28;20039;-81
2022/04/11 09:20:32;;;;;;;2.20;0.73;;;;;;;-143.85;100.00;70650.75;5093661;28;20024;-79
2022/04/11 09:22:58;;;;;;;2.72;1.48;;;;;;;-143.85;100.00;70650.75;5094870;28;20035;-83
2022/04/11 09:25:31;;;;;;;0.77;0.60;;;;;;;-143.85;100.00;70650.75;5093453;28;20023;-83
2022/04/11 09:28:11;;;;;;;2.80;2.08;;;;;;;-143.85;100.00;70650.75;5093122;28;20032;-82
2022/04/11 09:30:38;;;;;;;1.08;1.02;;;;;;;-143.85;100.00;70650.75;5093788;28;20025;-83
2022/04/11 09:33:05;;;;;;;0.85;0.85;;;;;;;-143.85;100.00;70650.75;5094340;28;20043;-82
2022/04/11 09:35:43;;;;;;;0.80;0.80;;;;;;;-143.85;100.00;70650.75;5092982;28;20024;-82
2022/04/11 09:38:09;;;;;;;0.90;0.70;;;;;;;-143.85;100.00;70650.75;5092731;28;20271;-83
2022/04/11 09:40:45;;;;;;;1.42;1.27;;;;;;;-143.85;100.00;70650.75;5092464;28;20109;-81
2022/04/11 09:43:12;;;;;;;2.83;1.25;;;;;;;-143.85;100.00;70650.75;5092803;28;20077;-83
2022/04/11 09:45:43;;;;;;;0.85;0.85;;;;;;;-143.85;100.00;70650.75;5092899;28;20055;-81
2022/04/11 09:48:09;;;;;;;1.60;0.95;;;;;;;-143.85;100.00;70650.75;5094167;28;20060;-82
2022/04/11 09:50:35;;;;;;;0.70;0.70;;;;;;;-143.85;100.00;70650.75;5092550;28;20458;-82
2022/04/11 09:53:11;;;;;;;1.75;0.70;;;;;;;-143.85;100.00;70650.75;5093959;28;20051;-81
2022/04/11 09:55:37;;;;;;;1.17;0.82;;;;;;;-143.85;100.00;70650.75;5092484;28;20116;-82
2022/04/11 09:58:04;;;;;;;1.35;1.25;;;;;;;-143.85;100.00;70650.75;5093616;28;20028;-82
2022/04/11 10:00:32;;;;;;;0.85;0.85;;;;;;;-143.85;100.00;70650.75;5091976;28;20085;-81
2022/04/11 10:02:58;;;;;;;1.15;1.08;;;;;;;-143.85;100.00;70650.75;5093335;28;20105;-82
2022/04/11 10:05:27;;;;;;;1.08;0.98;;;;;;;-143.85;100.00;70650.75;5093572;28;20372;-81
2022/04/11 10:07:56;;;;;;;3.60;1.10;;;;;;;-143.85;100.00;70650.75;5093368;28;20024;-82
2022/04/11 10:10:22;;;;;;;1.63;1.15;;;;;;;-143.85;100.00;70650.75;5091941;28;20123;-81
2022/04/11 10:12:48;;;;;;;2.85;1.25;;;;;;;-143.85;100.00;70650.75;5093262;28;20035;-82
2022/04/11 10:15:15;;;;;;;1.27;1.10;;;;;;;-143.85;100.00;70650.75;5093355;28;20495;-82
2022/04/11 10:17:41;;;;;;;1.00;0.98;;;;;;;-143.85;100.00;70650.75;5093289;28;20028;-81
2022/04/11 10:20:07;;;;;;;0.98;0.85;;;;;;;-143.85;100.00;70650.75;5091660;28;20111;-81
2022/04/11 10:22:40;;;;;;;0.70;0.70;;;;;;;-143.85;100.00;70650.75;5092807;28;20035;-81
2022/04/11 10:25:07;;;;;;;0.75;0.75;;;;;;;-143.85;100.00;70650.75;5093678;28;20035;-81
2022/04/11 10:27:34;;;;;;;2.47;1.45;;;;;;;-143.85;100.00;70650.75;5091879;28;20047;-82
2022/04/11 10:30:02;;;;;;;1.40;0.90;;;;;;;-143.85;100.00;70650.75;5093058;28;20093;-82
2022/04/11 10:32:29;;;;;;;0.90;0.90;;;;;;;-143.85;100.00;70650.75;5092011;28;20052;-82
2022/04/11 10:34:55;;;;;;;0.70;0.70;;;;;;;-143.85;100.00;70650.75;5091385;28;20035;-81
2022/04/11 10:37:41;;;;;;;0.80;0.80;;;;;;;-143.85;100.00;70650.75;5091203;28;20487;-80
2022/04/11 10:40:16;;;;;;;1.05;0.80;;;;;;;-143.85;100.00;70650.75;5078393;28;20039;-82
2022/04/11 10:42:59;;;;;;;1.67;0.80;;;;;;;-143.85;100.00;70650.75;5091837;28;20146;-83
2022/04/11 10:45:34;;;;;;;0.90;0.70;;;;;;;-143.85;100.00;70650.75;5092892;28;20028;-82
2022/04/11 10:48:01;;;;;;;5.63;2.28;;;;;;;-143.85;100.00;70650.75;5093131;28;20494;-82
2022/04/11 10:50:34;;;;;;;2.58;1.67;;;;;;;-143.85;100.00;70650.75;5092882;28;20032;-82
2022/04/11 10:53:27;;;;;;;3.85;1.50;;;;;;;-143.85;100.00;70650.75;5092866;28;20031;-82
2022/04/11 10:55:58;;;;;;;1.60;1.27;;;;;;;-143.85;100.00;70650.75;5091712;28;20039;-81
2022/04/11 10:58:40;;;;;;;1.33;1.23;;;;;;;-143.85;100.00;70650.75;5091367;28;20081;-81
2022/04/11 11:01:06;;;;;;;0.52;0.52;;;;;;;-143.85;100.00;70650.75;5092532;28;20081;-83
2022/04/11 11:03:32;;;;;;;0.70;0.70;;;;;;;-143.85;100.00;70650.75;5091628;28;20024;-80
2022/04/11 11:06:14;;;;;;;2.20;2.08;;;;;;;-143.85;100.00;70650.75;5092693;28;20024;-81
2022/04/11 11:08:40;;;;;;;1.92;1.60;;;;;;;-143.85;100.00;70650.75;5091261;28;20507;-81